createdAt,value
2018-08-24T00:02:08.254Z,18.20
2018-08-24T00:04:35.784Z,18.14
2018-08-24T00:07:03.405Z,18.09
2018-08-24T00:09:30.957Z,18.19
2018-08-24T00:11:58.522Z,18.19
2018-08-24T00:14:26.397Z,18.22
2018-08-24T00:16:53.958Z,18.24
2018-08-24T00:19:21.562Z,18.22
2018-08-24T00:21:49.146Z,18.17
2018-08-24T00:24:16.713Z,18.19
2018-08-24T00:26:44.294Z,18.28
2018-08-24T00:29:12.106Z,18.33
2018-08-24T00:31:40.114Z,18.32
2018-08-24T00:34:07.666Z,18.44
2018-08-24T00:36:35.247Z,18.54
2018-08-24T00:39:04.941Z,18.55
2018-08-24T00:41:32.478Z,18.43
2018-08-24T00:44:00.035Z,18.48
2018-08-24T00:46:27.707Z,18.51
2018-08-24T00:48:55.298Z,18.44
2018-08-24T00:51:22.825Z,18.48
2018-08-24T00:53:50.375Z,18.35
2018-08-24T00:56:17.903Z,18.31
2018-08-24T00:58:45.478Z,18.35
2018-08-24T01:01:13.081Z,18.43
2018-08-24T01:03:40.622Z,18.42
2018-08-24T01:06:08.403Z,18.43
2018-08-24T01:08:36.046Z,18.34
2018-08-24T01:11:04.457Z,18.26
2018-08-24T01:13:32.049Z,18.31
2018-08-24T01:16:00.643Z,18.21
2018-08-24T01:18:33.851Z,18.17
2018-08-24T01:21:01.426Z,18.00
2018-08-24T01:23:30.110Z,18.05
2018-08-24T01:25:57.649Z,18.08
2018-08-24T01:28:26.546Z,17.95
2018-08-24T01:30:55.679Z,17.96
2018-08-24T01:33:23.246Z,18.00
2018-08-24T01:35:50.807Z,17.94
2018-08-24T01:38:18.354Z,17.99
2018-08-24T01:40:45.859Z,17.91
2018-08-24T01:43:13.435Z,17.87
2018-08-24T01:45:41.051Z,17.82
2018-08-24T01:48:09.146Z,17.86
2018-08-24T01:50:37.061Z,17.85
2018-08-24T01:53:04.719Z,17.94
2018-08-24T01:55:32.302Z,17.97
2018-08-24T01:58:00.143Z,18.02
2018-08-24T02:00:27.691Z,18.03
2018-08-24T02:02:55.230Z,17.97
2018-08-24T02:05:22.774Z,17.89
2018-08-24T02:07:50.326Z,17.90
2018-08-24T02:10:23.497Z,17.90
2018-08-24T02:12:56.663Z,18.00
2018-08-24T02:15:24.265Z,17.87
2018-08-24T02:17:57.523Z,17.70
2018-08-24T02:20:30.732Z,17.84
2018-08-24T02:23:00.580Z,17.77
2018-08-24T02:25:28.110Z,17.68
2018-08-24T02:27:55.677Z,17.80
2018-08-24T02:30:23.207Z,17.78
2018-08-24T02:32:50.736Z,17.82
2018-08-24T02:35:19.023Z,17.81
2018-08-24T02:37:47.734Z,17.65
2018-08-24T02:40:15.258Z,17.66
2018-08-24T02:42:42.823Z,17.71
2018-08-24T02:45:10.423Z,17.58
2018-08-24T02:47:38.003Z,17.60
2018-08-24T02:50:05.710Z,17.71
2018-08-24T02:52:33.307Z,17.67
2018-08-24T02:55:00.815Z,17.65
2018-08-24T02:57:28.350Z,17.66
2018-08-24T02:59:55.921Z,17.69
2018-08-24T03:02:23.715Z,17.72
2018-08-24T03:04:51.223Z,17.75
2018-08-24T03:07:18.739Z,17.71
2018-08-24T03:09:46.598Z,17.66
2018-08-24T03:12:14.182Z,17.59
2018-08-24T03:14:41.747Z,17.53
2018-08-24T03:18:13.711Z,17.53
2018-08-24T03:20:41.259Z,17.47
2018-08-24T03:23:08.774Z,17.44
2018-08-24T03:25:36.362Z,17.53
2018-08-24T03:28:03.895Z,17.66
2018-08-24T03:30:31.724Z,17.64
2018-08-24T03:32:59.236Z,17.61
2018-08-24T03:35:26.754Z,17.63
2018-08-24T03:37:54.303Z,17.54
2018-08-24T03:40:21.834Z,17.54
2018-08-24T03:42:49.359Z,17.53
2018-08-24T03:45:16.958Z,17.52
2018-08-24T03:47:44.507Z,17.57
2018-08-24T03:50:12.098Z,17.64
2018-08-24T03:52:39.759Z,17.69
2018-08-24T03:55:07.314Z,17.63
2018-08-24T03:57:34.890Z,17.64
2018-08-24T04:00:02.426Z,17.67
2018-08-24T04:02:29.992Z,17.67
2018-08-24T04:04:57.518Z,17.73
2018-08-24T04:07:25.069Z,17.74
2018-08-24T04:09:52.622Z,17.79
2018-08-24T04:12:20.178Z,17.81
2018-08-24T04:14:47.722Z,17.78
2018-08-24T04:17:21.039Z,17.89
2018-08-24T04:19:48.595Z,17.76
2018-08-24T04:22:16.115Z,17.60
2018-08-24T04:24:43.667Z,17.55
2018-08-24T04:27:11.247Z,17.64
2018-08-24T04:29:39.141Z,17.63
2018-08-24T04:32:06.671Z,17.63
2018-08-24T04:34:34.213Z,17.69
2018-08-24T04:37:01.749Z,17.64
2018-08-24T04:39:29.267Z,17.63
2018-08-24T04:41:56.801Z,17.63
2018-08-24T04:44:24.338Z,17.60
2018-08-24T04:46:51.876Z,17.62
2018-08-24T04:49:19.421Z,17.66
2018-08-24T04:51:46.959Z,17.84
2018-08-24T04:54:14.555Z,17.75
2018-08-24T04:56:42.166Z,17.75
2018-08-24T04:59:09.689Z,17.83
2018-08-24T05:01:37.238Z,17.73
2018-08-24T05:04:04.814Z,17.71
2018-08-24T05:06:32.333Z,17.76
2018-08-24T05:08:59.902Z,17.77
2018-08-24T05:11:27.443Z,17.82
2018-08-24T05:13:55.018Z,17.68
2018-08-24T05:16:22.584Z,17.63
2018-08-24T05:18:50.125Z,17.63
2018-08-24T05:21:17.702Z,17.66
2018-08-24T05:23:45.215Z,17.67
2018-08-24T05:26:12.778Z,17.69
2018-08-24T05:28:40.322Z,17.83
2018-08-24T05:31:07.846Z,17.89
2018-08-24T05:33:35.391Z,17.93
2018-08-24T05:36:02.929Z,17.87
2018-08-24T05:38:30.461Z,17.99
2018-08-24T05:40:58.032Z,18.03
2018-08-24T05:43:25.569Z,18.02
2018-08-24T05:45:53.122Z,18.03
2018-08-24T05:48:20.731Z,18.03
2018-08-24T05:50:48.250Z,18.11
2018-08-24T05:53:15.794Z,18.15
2018-08-24T05:55:43.533Z,18.15
2018-08-24T05:58:10.883Z,18.16
2018-08-24T06:00:39.597Z,18.30
2018-08-24T06:03:07.898Z,18.31
2018-08-24T06:05:35.549Z,18.43
2018-08-24T06:08:03.442Z,18.45
2018-08-24T06:10:30.982Z,18.57
2018-08-24T06:12:59.366Z,18.57
2018-08-24T06:15:27.283Z,18.62
2018-08-24T06:17:55.806Z,18.59
2018-08-24T06:20:23.626Z,18.64
2018-08-24T06:22:51.557Z,18.79
2018-08-24T06:25:19.118Z,18.72
2018-08-24T06:27:46.686Z,18.84
2018-08-24T06:30:14.217Z,18.89
2018-08-24T06:32:42.402Z,18.78
2018-08-24T06:35:11.195Z,18.83
2018-08-24T06:37:38.823Z,18.68
2018-08-24T06:40:06.459Z,18.70
2018-08-24T06:42:34.395Z,18.69
2018-08-24T06:45:01.982Z,18.72
2018-08-24T06:47:29.563Z,18.77
2018-08-24T06:49:57.154Z,18.86
2018-08-24T06:52:25.114Z,18.84
2018-08-24T06:54:53.885Z,18.95
2018-08-24T06:57:21.460Z,19.00
2018-08-24T06:59:49.197Z,19.25
2018-08-24T07:02:16.732Z,19.34
2018-08-24T07:04:44.271Z,19.43
2018-08-24T07:07:11.898Z,19.47
2018-08-24T07:09:39.654Z,19.47
2018-08-24T07:12:08.356Z,19.50
2018-08-24T07:14:35.895Z,19.65
2018-08-24T07:17:03.472Z,19.79
2018-08-24T07:19:31.335Z,19.98
2018-08-24T07:21:59.111Z,19.70
2018-08-24T07:24:26.647Z,19.63
2018-08-24T07:26:54.966Z,19.36
2018-08-24T07:29:23.132Z,19.40
2018-08-24T07:31:50.718Z,19.33
2018-08-24T07:34:18.274Z,19.26
2018-08-24T07:36:45.827Z,19.20
2018-08-24T07:39:14.363Z,19.27
2018-08-24T07:41:42.281Z,19.65
2018-08-24T07:44:10.749Z,20.11
2018-08-24T07:46:38.451Z,20.75
2018-08-24T07:49:06.995Z,20.71
2018-08-24T07:51:34.910Z,20.54
2018-08-24T07:54:02.826Z,20.43
2018-08-24T07:56:31.195Z,20.30
2018-08-24T07:59:00.179Z,20.35
2018-08-24T08:01:28.327Z,20.48
2018-08-24T08:03:56.477Z,21.05
2018-08-24T08:06:24.066Z,21.23
2018-08-24T08:08:51.598Z,21.32
2018-08-24T08:11:19.173Z,21.93
2018-08-24T08:13:46.712Z,22.17
2018-08-24T08:16:14.240Z,22.27
2018-08-24T08:18:41.869Z,22.85
2018-08-24T08:21:09.363Z,23.61
2018-08-24T08:23:37.030Z,23.36
2018-08-24T08:26:04.614Z,24.30
2018-08-24T08:28:32.244Z,24.65
2018-08-24T08:30:59.826Z,24.86
2018-08-24T08:33:27.388Z,25.29
2018-08-24T08:35:55.033Z,26.32
2018-08-24T08:38:22.631Z,26.70
2018-08-24T08:40:50.211Z,26.56
2018-08-24T08:43:17.854Z,27.27
2018-08-24T08:45:45.387Z,28.04
2018-08-24T08:48:13.033Z,28.36
2018-08-24T08:50:40.584Z,28.62
2018-08-24T08:53:08.134Z,28.32
2018-08-24T08:55:35.723Z,28.24
2018-08-24T08:58:03.310Z,28.54
2018-08-24T09:00:30.887Z,29.09
2018-08-24T09:02:58.445Z,28.06
2018-08-24T09:05:26.027Z,26.99
2018-08-24T09:07:53.566Z,25.33
2018-08-24T09:10:21.135Z,24.36
2018-08-24T09:12:48.752Z,23.54
2018-08-24T09:15:16.257Z,23.13
2018-08-24T09:17:49.559Z,22.61
2018-08-24T09:20:22.848Z,22.02
2018-08-24T09:22:56.019Z,21.35
2018-08-24T09:25:29.304Z,21.00
2018-08-24T09:28:02.575Z,20.74
2018-08-24T09:31:04.618Z,21.80
2018-08-24T09:33:32.190Z,22.36
2018-08-24T09:36:04.277Z,22.78
2018-08-24T09:38:32.083Z,24.13
2018-08-24T09:40:59.617Z,24.51
2018-08-24T09:43:32.938Z,24.40
2018-08-24T09:46:00.496Z,25.39
2018-08-24T09:48:30.570Z,25.67
2018-08-24T09:51:03.790Z,25.68
2018-08-24T09:53:37.062Z,25.80
2018-08-24T09:56:04.697Z,26.07
2018-08-24T09:58:32.220Z,26.90
2018-08-24T10:01:05.335Z,27.46
2018-08-24T10:03:38.462Z,28.16
2018-08-24T10:06:12.033Z,28.42
2018-08-24T10:08:45.290Z,28.96
2018-08-24T10:11:12.978Z,28.74
2018-08-24T10:13:40.562Z,28.93
2018-08-24T10:16:08.107Z,29.43
2018-08-24T10:18:35.688Z,29.21
2018-08-24T10:21:03.244Z,29.23
2018-08-24T10:23:30.818Z,28.92
2018-08-24T10:25:58.599Z,28.86
2018-08-24T10:28:26.146Z,29.01
2018-08-24T10:30:53.943Z,28.95
2018-08-24T10:33:21.491Z,28.91
2018-08-24T10:35:49.051Z,28.43
2018-08-24T10:38:16.926Z,27.48
2018-08-24T10:40:44.493Z,28.33
2018-08-24T10:43:12.452Z,28.87
2018-08-24T10:45:40.006Z,28.55
2018-08-24T10:48:07.584Z,28.21
2018-08-24T10:50:35.186Z,28.09
2018-08-24T10:53:02.751Z,27.91
2018-08-24T10:55:30.317Z,27.70
2018-08-24T10:57:58.238Z,27.65
2018-08-24T11:00:25.854Z,27.50
2018-08-24T11:02:53.419Z,27.01
2018-08-24T11:05:22.083Z,26.60
2018-08-24T11:07:49.605Z,26.28
2018-08-24T11:10:17.172Z,25.89
2018-08-24T11:12:44.747Z,25.94
2018-08-24T11:15:12.303Z,25.73
2018-08-24T11:17:45.546Z,25.61
2018-08-24T11:20:13.078Z,25.28
2018-08-24T11:22:40.794Z,25.06
2018-08-24T11:25:08.320Z,24.74
2018-08-24T11:27:35.858Z,24.49
2018-08-24T11:30:03.840Z,24.00
2018-08-24T11:32:31.829Z,24.02
2018-08-24T11:34:59.422Z,23.70
2018-08-24T11:37:26.960Z,24.11
2018-08-24T11:39:54.543Z,24.36
2018-08-24T11:42:22.160Z,24.29
2018-08-24T11:44:50.075Z,23.77
2018-08-24T11:47:18.298Z,23.55
2018-08-24T11:49:46.362Z,23.67
2018-08-24T11:52:13.937Z,23.71
2018-08-24T11:54:41.686Z,23.49
2018-08-24T11:57:09.234Z,23.40
2018-08-24T11:59:36.778Z,23.32
2018-08-24T12:02:04.496Z,22.95
2018-08-24T12:04:32.028Z,22.79
2018-08-24T12:06:59.655Z,22.62
2018-08-24T12:09:27.203Z,21.94
2018-08-24T12:11:56.399Z,21.67
2018-08-24T12:14:23.943Z,21.29
2018-08-24T12:16:51.743Z,21.22
2018-08-24T12:19:19.443Z,21.11
2018-08-24T12:21:47.937Z,21.31
2018-08-24T12:24:15.519Z,21.42
2018-08-24T12:26:43.440Z,21.32
2018-08-24T12:29:11.418Z,21.41
2018-08-24T12:31:38.947Z,21.42
2018-08-24T12:34:06.627Z,21.40
2018-08-24T12:36:34.188Z,21.28
2018-08-24T12:39:03.201Z,21.35
2018-08-24T12:41:30.742Z,21.58
2018-08-24T12:43:58.306Z,21.74
2018-08-24T12:46:25.828Z,21.89
2018-08-24T12:48:53.426Z,21.95
2018-08-24T12:51:20.978Z,21.83
2018-08-24T12:53:48.516Z,22.04
2018-08-24T12:56:21.416Z,21.97
2018-08-24T12:58:50.085Z,21.80
2018-08-24T13:01:17.991Z,21.70
2018-08-24T13:03:45.571Z,21.64
2018-08-24T13:06:13.165Z,21.75
2018-08-24T13:08:41.241Z,21.44
2018-08-24T13:11:08.774Z,21.56
2018-08-24T13:13:36.362Z,20.98
2018-08-24T13:16:04.150Z,20.71
2018-08-24T13:18:31.808Z,20.59
2018-08-24T13:20:59.356Z,20.48
2018-08-24T13:23:26.903Z,20.19
2018-08-24T13:25:54.482Z,20.11
2018-08-24T13:28:22.027Z,19.90
2018-08-24T13:30:49.820Z,19.92
2018-08-24T13:33:17.423Z,19.80
2018-08-24T13:35:45.066Z,19.38
2018-08-24T13:38:13.451Z,19.16
2018-08-24T13:40:40.994Z,18.97
2018-08-24T13:43:09.556Z,18.79
2018-08-24T13:45:37.122Z,18.66
2018-08-24T13:48:05.075Z,18.75
2018-08-24T13:50:32.692Z,18.64
2018-08-24T13:53:00.499Z,18.62
2018-08-24T13:55:28.229Z,18.57
2018-08-24T13:57:55.875Z,18.56
2018-08-24T14:00:24.007Z,18.48
2018-08-24T14:02:51.598Z,18.51
2018-08-24T14:05:19.161Z,18.46
2018-08-24T14:07:46.739Z,18.55
2018-08-24T14:10:14.297Z,18.48
2018-08-24T14:12:41.891Z,18.54
2018-08-24T14:15:09.430Z,18.40
2018-08-24T14:17:36.952Z,18.31
2018-08-24T14:20:05.827Z,18.43
2018-08-24T14:22:33.647Z,18.38
2018-08-24T14:25:01.234Z,18.55
2018-08-24T14:27:28.838Z,18.32
2018-08-24T14:29:56.351Z,18.17
2018-08-24T14:32:24.018Z,17.93
2018-08-24T14:34:51.565Z,17.89
2018-08-24T14:37:19.112Z,17.66
2018-08-24T14:39:46.666Z,17.67
2018-08-24T14:42:14.235Z,17.69
2018-08-24T14:44:41.779Z,17.53
2018-08-24T14:47:09.351Z,17.55
2018-08-24T14:49:36.913Z,17.52
2018-08-24T14:52:04.509Z,17.47
2018-08-24T14:54:32.065Z,17.62
2018-08-24T14:56:59.639Z,17.55
2018-08-24T14:59:27.214Z,17.72
2018-08-24T15:01:54.816Z,17.61
2018-08-24T15:04:22.393Z,17.62
2018-08-24T15:06:49.979Z,17.58
2018-08-24T15:09:17.522Z,17.59
2018-08-24T15:11:45.097Z,17.62
2018-08-24T15:14:12.647Z,17.57
2018-08-24T15:16:40.233Z,17.41
2018-08-24T15:19:07.794Z,17.57
2018-08-24T15:21:35.367Z,17.54
2018-08-24T15:24:02.909Z,17.39
2018-08-24T15:26:31.281Z,17.30
2018-08-24T15:28:58.910Z,17.22
2018-08-24T15:31:26.510Z,17.43
2018-08-24T15:33:54.139Z,17.46
2018-08-24T15:36:21.699Z,17.37
2018-08-24T15:38:49.303Z,17.38
2018-08-24T15:41:16.845Z,17.28
2018-08-24T15:43:44.399Z,17.29
2018-08-24T15:46:12.021Z,17.18
2018-08-24T15:48:39.575Z,17.19
2018-08-24T15:51:07.144Z,17.15
2018-08-24T15:53:34.706Z,17.17
2018-08-24T15:56:03.275Z,16.92
2018-08-24T15:58:30.825Z,16.95
2018-08-24T16:00:58.397Z,16.91
2018-08-24T16:03:25.955Z,16.87
2018-08-24T16:05:53.531Z,16.87
2018-08-24T16:08:21.383Z,16.96
2018-08-24T16:10:48.939Z,17.08
2018-08-24T16:13:16.505Z,16.98
2018-08-24T16:15:44.049Z,17.01
2018-08-24T16:18:17.099Z,17.01
2018-08-24T16:20:44.656Z,16.92
2018-08-24T16:23:12.190Z,16.93
2018-08-24T16:25:39.754Z,17.03
2018-08-24T16:28:07.306Z,17.16
2018-08-24T16:30:34.851Z,17.19
2018-08-24T16:33:02.404Z,17.21
2018-08-24T16:35:30.031Z,17.17
2018-08-24T16:37:57.588Z,17.22
2018-08-24T16:40:25.238Z,17.20
2018-08-24T16:42:52.773Z,17.22
2018-08-24T16:45:20.316Z,17.17
2018-08-24T16:47:48.269Z,17.01
2018-08-24T16:50:15.823Z,17.05
2018-08-24T16:52:43.362Z,17.03
2018-08-24T16:55:10.955Z,17.02
2018-08-24T16:57:38.642Z,17.01
2018-08-24T17:00:06.606Z,16.95
2018-08-24T17:02:34.151Z,17.03
2018-08-24T17:05:01.707Z,16.99
2018-08-24T17:07:29.286Z,16.97
2018-08-24T17:09:56.837Z,16.92
2018-08-24T17:12:24.816Z,16.90
2018-08-24T17:14:53.305Z,16.86
2018-08-24T17:17:20.863Z,16.79
2018-08-24T17:19:48.470Z,16.75
2018-08-24T17:22:16.021Z,16.64
2018-08-24T17:24:43.569Z,16.66
2018-08-24T17:27:11.155Z,16.67
2018-08-24T17:29:38.712Z,16.67
2018-08-24T17:32:06.258Z,16.69
2018-08-24T17:34:33.806Z,16.76
2018-08-24T17:37:01.408Z,16.79
2018-08-24T17:39:28.948Z,16.74
2018-08-24T17:41:56.554Z,16.76
2018-08-24T17:44:24.169Z,16.69
2018-08-24T17:46:51.731Z,16.68
2018-08-24T17:49:19.279Z,16.73
2018-08-24T17:51:47.640Z,16.70
2018-08-24T17:54:15.278Z,16.68
2018-08-24T17:56:42.824Z,16.48
2018-08-24T17:59:10.367Z,16.51
2018-08-24T18:01:38.200Z,16.41
2018-08-24T18:04:05.798Z,16.44
2018-08-24T18:06:33.352Z,16.45
2018-08-24T18:09:00.974Z,16.42
2018-08-24T18:11:28.571Z,16.32
2018-08-24T18:13:56.126Z,16.36
2018-08-24T18:16:23.704Z,16.27
2018-08-24T18:18:51.268Z,16.15
2018-08-24T18:21:18.815Z,16.11
2018-08-24T18:23:46.886Z,16.03
2018-08-24T18:26:14.488Z,15.99
2018-08-24T18:28:42.121Z,15.95
2018-08-24T18:31:10.041Z,15.87
2018-08-24T18:33:37.590Z,15.76
2018-08-24T18:36:05.526Z,15.71
2018-08-24T18:38:33.141Z,15.61
2018-08-24T18:41:00.767Z,15.65
2018-08-24T18:43:28.316Z,15.66
2018-08-24T18:45:55.890Z,15.63
2018-08-24T18:48:23.449Z,15.64
2018-08-24T18:50:51.171Z,15.60
2018-08-24T18:53:19.194Z,15.53
2018-08-24T18:55:46.795Z,15.45
2018-08-24T18:58:14.351Z,15.45
2018-08-24T19:00:41.954Z,15.50
2018-08-24T19:03:09.505Z,15.45
2018-08-24T19:05:37.071Z,15.52
2018-08-24T19:08:09.267Z,15.40
2018-08-24T19:10:42.829Z,15.34
2018-08-24T19:13:11.547Z,15.30
2018-08-24T19:15:39.179Z,15.29
2018-08-24T19:18:12.399Z,15.23
2018-08-24T19:20:45.705Z,15.14
2018-08-24T19:23:13.261Z,15.09
2018-08-24T19:25:40.878Z,15.08
2018-08-24T19:28:13.974Z,15.07
2018-08-24T19:30:41.583Z,15.05
2018-08-24T19:33:09.143Z,14.92
2018-08-24T19:35:36.698Z,14.88
2018-08-24T19:38:04.294Z,14.84
2018-08-24T19:40:37.504Z,14.78
2018-08-24T19:43:05.246Z,14.81
2018-08-24T19:45:32.802Z,14.81
2018-08-24T19:48:06.216Z,14.73
2018-08-24T19:50:33.774Z,14.63
2018-08-24T19:53:01.362Z,14.51
2018-08-24T19:55:28.991Z,14.61
2018-08-24T19:58:02.210Z,14.46
2018-08-24T20:00:29.777Z,14.40
2018-08-24T20:02:57.343Z,14.52
2018-08-24T20:05:24.869Z,14.45
2018-08-24T20:07:58.347Z,14.31
2018-08-24T20:10:25.915Z,14.12
2018-08-24T20:12:53.444Z,14.13
2018-08-24T20:15:26.646Z,14.11
2018-08-24T20:17:54.216Z,14.01
2018-08-24T20:20:21.790Z,13.96
2018-08-24T20:22:49.355Z,14.06
2018-08-24T20:25:16.943Z,14.05
2018-08-24T20:27:44.507Z,13.98
2018-08-24T20:30:12.091Z,13.95
2018-08-24T20:32:39.654Z,13.92
2018-08-24T20:35:07.231Z,13.92
2018-08-24T20:37:34.788Z,13.95
2018-08-24T20:40:02.725Z,13.94
2018-08-24T20:42:30.247Z,13.91
2018-08-24T20:44:57.810Z,13.83
2018-08-24T20:47:25.524Z,13.82
2018-08-24T20:49:52.934Z,13.80
2018-08-24T20:52:20.698Z,13.78
2018-08-24T20:54:48.271Z,13.70
2018-08-24T20:57:15.796Z,13.72
2018-08-24T20:59:43.370Z,13.73
2018-08-24T21:02:10.911Z,13.68
2018-08-24T21:04:38.798Z,13.63
2018-08-24T21:07:06.686Z,13.67
2018-08-24T21:09:34.254Z,13.67
2018-08-24T21:12:01.815Z,13.59
2018-08-24T21:14:29.492Z,13.68
2018-08-24T21:16:57.245Z,13.63
2018-08-24T21:19:24.796Z,13.70
2018-08-24T21:21:52.337Z,13.74
2018-08-24T21:24:19.867Z,13.73
2018-08-24T21:26:47.840Z,13.73
2018-08-24T21:29:16.226Z,13.72
2018-08-24T21:31:43.654Z,13.65
2018-08-24T21:34:11.183Z,13.73
2018-08-24T21:36:38.726Z,13.78
2018-08-24T21:39:07.961Z,13.71
2018-08-24T21:41:35.592Z,13.70
2018-08-24T21:44:03.535Z,13.64
2018-08-24T21:46:31.070Z,13.63
2018-08-24T21:48:58.610Z,13.58
2018-08-24T21:51:26.159Z,13.52
2018-08-24T21:53:53.723Z,13.55
2018-08-24T21:56:21.318Z,13.55
2018-08-24T21:58:48.857Z,13.52
2018-08-24T22:01:16.453Z,13.50
2018-08-24T22:03:44.043Z,13.49
2018-08-24T22:06:11.607Z,13.45
2018-08-24T22:08:39.167Z,13.52
2018-08-24T22:11:06.799Z,13.57
2018-08-24T22:13:34.338Z,13.64
2018-08-24T22:16:01.880Z,13.64
2018-08-24T22:18:29.506Z,13.59
2018-08-24T22:20:57.014Z,13.58
2018-08-24T22:23:24.561Z,13.53
2018-08-24T22:25:52.103Z,13.53
2018-08-24T22:28:19.708Z,13.53
2018-08-24T22:30:47.298Z,13.51
2018-08-24T22:33:14.819Z,13.50
2018-08-24T22:35:42.367Z,13.46
2018-08-24T22:38:09.915Z,13.43
2018-08-24T22:40:37.622Z,13.39
2018-08-24T22:43:09.974Z,13.40
2018-08-24T22:45:37.516Z,13.40
2018-08-24T22:48:05.694Z,13.35
2018-08-24T22:50:33.243Z,13.37
2018-08-24T22:53:00.807Z,13.33
2018-08-24T22:55:28.687Z,13.34
2018-08-24T22:57:56.223Z,13.32
2018-08-24T23:00:23.746Z,13.19
2018-08-24T23:02:51.311Z,13.20
2018-08-24T23:05:18.843Z,13.27
2018-08-24T23:07:46.395Z,13.23
2018-08-24T23:10:14.031Z,13.22
2018-08-24T23:12:41.557Z,13.12
2018-08-24T23:15:09.118Z,13.18
2018-08-24T23:17:36.693Z,13.03
2018-08-24T23:20:05.322Z,13.05
2018-08-24T23:22:32.862Z,13.10
2018-08-24T23:25:00.411Z,13.09
2018-08-24T23:27:27.987Z,13.05
2018-08-24T23:29:55.510Z,13.03
2018-08-24T23:32:23.084Z,13.05
2018-08-24T23:34:50.667Z,13.07
2018-08-24T23:37:18.256Z,13.03
2018-08-24T23:39:45.806Z,13.04
2018-08-24T23:42:13.342Z,13.01
2018-08-24T23:44:40.890Z,12.99
2018-08-24T23:47:08.451Z,12.97
2018-08-24T23:49:35.986Z,12.91
2018-08-24T23:52:03.569Z,12.84
2018-08-24T23:54:31.143Z,12.87
2018-08-24T23:56:59.851Z,12.86
2018-08-24T23:59:27.393Z,12.83
